NEODyS-2

Near Earth Objects - Dynamic Site
NEODyS ∴ Observatories ∴ Site 691 ∴ Obs & residuals
Contact »
691  ▹ 
OBSERVATIONS AND RESIDUALS

691-Steward Observatory, Kitt Peak-Spacewatch

Detections | Residuals | Detections & Residuals

[1-200] [201-400] [401-600] [601-800] [801-1000] [1001-1200] [1201-1400] [1401-1600] [1601-1800] [1801-2000] [2001-2200] [2201-2400] [2401-2600] [2601-2800] [2801-3000] [3001-3200] [3201-3400] [3401-3600] [3601-3800] [3801-4000] [4001-4200] [4201-4400] [4401-4600] [4601-4800] [4801-5000] [5001-5200] [5201-5400] [5401-5600] [5601-5800] [5801-6000] [6001-6200] [6201-6400] [6401-6600] [6601-6800] [6801-7000] [7001-7200] [7201-7400] [7401-7600] [7601-7800] [7801-8000] [8001-8200] [8201-8400] [8401-8600] [8601-8800] [8801-9000] [9001-9200] [9201-9400] [9401-9600] [9601-9800] [9801-10000] [10001-10200] [10201-10400] [10401-10600] [10601-10800] [10801-11000] [11001-11200] [11201-11400] [11401-11600] [11601-11800] [11801-12000] [12001-12200] [12201-12400] [12401-12600] [12601-12800] [12801-13000] [13001-13200] [13201-13400] [13401-13600] [13601-13800] [13801-14000] [14001-14200] [14201-14400] [14401-14600] [14601-14800] [14801-15000] [15001-15200] [15201-15400] [15401-15600] [15601-15800] [15801-16000] [16001-16200] [16201-16400] [16401-16600] [16601-16800] [16801-17000] [17001-17200] [17201-17400] [17401-17600] [17601-17800] [17801-18000] [18001-18200] [18201-18400] [18401-18600] [18601-18800] [18801-19000] [19001-19200] [19201-19400] [19401-19600] [19601-19800] [19801-20000] [20001-20200] [20201-20400] [20401-20600] [20601-20800] [20801-21000] [21001-21200] [21201-21400] [21401-21600] [21601-21800] [21801-22000] [22001-22200] [22201-22400] [22401-22600] [22601-22800] [22801-23000] [23001-23200] [23201-23400] [23401-23600] [23601-23800] [23801-24000] [24001-24200] [24201-24400] [24401-24600] [24601-24800] [24801-25000] [25001-25200] [25201-25400] [25401-25600] [25601-25800] [25801-26000] [26001-26200] [26201-26400] [26401-26600] [26601-26800] [26801-27000] [27001-27200] [27201-27400] [27401-27600] [27601-27800] [27801-28000] [28001-28200] [28201-28400] [28401-28600] [28601-28800] [28801-29000] [29001-29200] [29201-29400] [29401-29600] [29601-29800] [29801-30000] [30001-30200] [30201-30400] [30401-30600] [30601-30800] [30801-31000] [31001-31200] [31201-31400] [31401-31600] [31601-31800] [31801-32000] [32001-32200] [32201-32400] [32401-32600] [32601-32800] [32801-33000] [33001-33200] [33201-33400] [33401-33600] [33601-33800] [33801-34000] [34001-34200] [34201-34400] [34401-34600] [34601-34800] [34801-35000] [35001-35200] [35201-35400] [35401-35600] [35601-35800] [35801-36000] [36001-36200] [36201-36400] [36401-36600] [36601-36800] [36801-37000] [37001-37200] [37201-37400] [37401-37600] [37601-37800] [37801-38000] [38001-38200] [38201-38400] [38401-38600] [38601-38800] [38801-39000] [39001-39200] [39201-39400] [39401-39600] [39601-39800] [39801-40000] [40001-40200] [40201-40400] [40401-40600] [40601-40800] [40801-41000] [41001-41200] [41201-41400] [41401-41600] [41601-41800] [41801-42000] [42001-42200] [42201-42400] [42401-42600] [42601-42800] [42801-43000] [43001-43200] [43201-43400] [43401-43600] [43601-43800] [43801-44000] [44001-44200] [44201-44400] [44401-44600] [44601-44800] [44801-45000] [45001-45200] [45201-45400] [45401-45600] [45601-45800] [45801-46000] [46001-46200] [46201-46400] [46401-46600] [46601-46800] [46801-47000] [47001-47200] [47201-47400] [47401-47600] [47601-47800] [47801-48000] [48001-48200] [48201-48400] [48401-48600] [48601-48800] [48801-49000] [49001-49200] [49201-49400] [49401-49600] [49601-49800] [49801-50000] [50001-50200] [50201-50388]

Designation T Tech N Date Right Ascension Declination Apparent Magnitude Star Catalog Site code χ Used A Used M
yr-mo-day precision hr:min:sec precision rms F bias residual deg min sec precision rms F bias residual mag/col rms residual
2017MA4 O C K 2017-06-30.21226 1.000E-05 16:12:50.450 1.500E-01 0.500 F 0.278 -0.142 -05° 07' 40.90" 1.000E-01 0.500 F 0.220 -0.022 o 691 0.29 Yes No
2017MV2 O C H 2017-06-30.24210 1.000E-05 16:48:15.810 1.500E-01 0.500 F 0.145 0.345 +03° 30' 38.40" 1.000E-01 0.500 F 0.215 -0.154 21.1 R 0.70 0.65 o 691 0.76 Yes Yes
2017MV2 O C H 2017-06-30.26460 1.000E-05 16:48:13.920 1.500E-01 0.500 F 0.145 -0.313 +03° 30' 50.70" 1.000E-01 0.500 F 0.215 0.451 21.0 R 0.70 0.55 o 691 1.10 Yes Yes
2017MV2 O C H 2017-06-30.28724 1.000E-05 16:48:12.090 1.500E-01 0.500 F 0.145 0.031 +03° 31' 02.00" 1.000E-01 0.500 F 0.215 0.020 21.3 R 0.70 0.85 o 691 0.07 Yes Yes
2017MB1 O C 2017-06-30.38269 1.000E-05 20:43:00.960 1.500E-01 0.500 F -0.056 0.905 -05° 18' 34.70" 1.000E-01 0.500 F 0.295 1.104 17.8 V 0.70 -0.29 o 691 2.87 Yes Yes
2017MB1 O C 2017-06-30.39125 1.000E-05 20:43:01.880 1.500E-01 0.500 F -0.056 -0.191 -05° 18' 27.60" 1.000E-01 0.500 F 0.295 0.003 18.2 V 0.70 0.11 o 691 0.38 Yes Yes
2017MB1 O C 2017-06-30.40005 1.000E-05 20:43:02.900 1.500E-01 0.500 F -0.056 -0.215 -05° 18' 19.20" 1.000E-01 0.500 F 0.295 -0.039 18.1 V 0.70 0.02 o 691 0.44 Yes Yes
2017MH7 O C H 2017-06-30.43054 1.000E-05 21:00:11.220 1.500E-01 0.500 F 0.096 0.129 -28° 24' 37.90" 1.000E-01 0.500 F 0.330 0.048 20.0 R 0.70 0.62 o 691 0.30 Yes Yes
2017MW4 O C H 2017-06-30.43169 1.000E-05 20:38:45.910 1.500E-01 0.500 F -0.084 0.379 -20° 34' 09.90" 1.000E-01 0.500 F 0.033 0.638 19.1 R 0.70 -0.31 o 691 1.49 Yes Yes
2015FO124 O C H 2017-06-30.43415 1.000E-05 20:58:53.650 1.500E-01 0.500 F 0.044 -0.146 -05° 59' 11.40" 1.000E-01 0.500 F 0.286 -0.029 20.4 R 0.70 -0.21 o 691 0.30 Yes Yes
2017MH7 O C H 2017-06-30.43674 1.000E-05 21:00:13.670 1.500E-01 0.500 F 0.096 0.216 -28° 25' 04.60" 1.000E-01 0.500 F 0.330 -0.237 20.6 R 0.70 1.23 o 691 0.71 Yes Yes
2017MW4 O C H 2017-06-30.43789 1.000E-05 20:38:44.400 1.500E-01 0.500 F -0.084 0.626 -20° 33' 54.30" 1.000E-01 0.500 F 0.033 -0.132 19.7 R 0.70 0.29 o 691 1.29 Yes Yes
2015FO124 O C H 2017-06-30.44033 1.000E-05 20:58:53.880 1.500E-01 0.500 F 0.044 0.012 -05° 59' 11.20" 1.000E-01 0.500 F 0.286 0.106 20.7 R 0.70 0.09 o 691 0.21 Yes Yes
2017MH7 O C H 2017-06-30.44292 1.000E-05 21:00:16.080 1.500E-01 0.500 F 0.096 -0.156 -28° 25' 30.70" 1.000E-01 0.500 F 0.330 -0.016 19.4 R 0.70 0.03 o 691 0.34 Yes Yes
2017MW4 O C H 2017-06-30.44407 1.000E-05 20:38:42.830 1.500E-01 0.500 F -0.084 -0.044 -20° 33' 37.70" 1.000E-01 0.500 F 0.033 0.140 20.2 R 0.70 0.79 o 691 0.30 Yes Yes
2015FO124 O C H 2017-06-30.44650 1.000E-05 20:58:54.090 1.500E-01 0.500 F 0.044 -0.128 -05° 59' 11.10" 1.000E-01 0.500 F 0.286 0.138 20.6 R 0.70 -0.01 o 691 0.38 Yes Yes
2017HV4 O C 2017-06-30.45288 1.000E-05 21:38:01.250 1.500E-01 0.500 F -0.142 0.134 -14° 43' 33.80" 1.000E-01 0.500 F 0.256 -0.231 19.7 V 0.70 -0.39 o 691 0.54 Yes Yes
2017HV4 O C 2017-06-30.45731 1.000E-05 21:38:02.010 1.500E-01 0.500 F -0.142 0.131 -14° 43' 22.10" 1.000E-01 0.500 F 0.256 0.155 19.8 V 0.70 -0.29 o 691 0.41 Yes Yes
2017HV4 O C 2017-06-30.46178 1.000E-05 21:38:02.760 1.500E-01 0.500 F -0.142 -0.124 -14° 43' 11.00" 1.000E-01 0.500 F 0.256 -0.181 20.0 V 0.70 -0.09 o 691 0.44 Yes Yes
2007SJ O C 2017-07-01.15799 1.000E-05 15:27:39.210 1.500E-01 0.500 F 0.355 -0.490 -29° 37' 00.10" 1.000E-01 0.500 F 0.252 0.181 20.5 V 0.70 0.22 o 691 1.04 Yes Yes
2000SB8 O C K 2017-07-01.15799 1.000E-05 15:28:43.880 1.500E-01 0.500 F 0.355 -0.542 -29° 15' 21.00" 1.000E-01 0.500 F 0.252 0.140 o 691 1.19 Yes No
2007SJ O C 2017-07-01.16762 1.000E-05 15:27:39.060 1.500E-01 0.500 F 0.355 -0.206 -29° 36' 55.70" 1.000E-01 0.500 F 0.252 0.163 20.7 V 0.70 0.42 o 691 0.52 Yes Yes
2000SB8 O C K 2017-07-01.16762 1.000E-05 15:28:43.370 1.500E-01 0.500 F 0.355 0.677 -29° 15' 20.90" 1.000E-01 0.500 F 0.252 0.012 22.5 R 0.70 1.82 o 691 1.43 Yes Yes
2007SJ O C 2017-07-01.17725 1.000E-05 15:27:38.860 1.500E-01 0.500 F 0.355 -0.576 -29° 36' 51.60" 1.000E-01 0.500 F 0.252 -0.163 20.3 V 0.70 0.02 o 691 1.20 Yes Yes
2000SB8 O C K 2017-07-01.17725 1.000E-05 15:28:42.750 1.500E-01 0.500 F 0.355 0.455 -29° 15' 21.00" 1.000E-01 0.500 F 0.252 -0.331 22.3 R 0.70 1.62 o 691 1.20 Yes Yes
2017MA4 O C K 2017-07-01.18664 1.000E-05 16:11:16.240 1.500E-01 0.500 F 0.117 -0.980 -04° 55' 06.70" 1.000E-01 0.500 F 0.132 -0.526 o 691 2.23 Yes No
2017MA4 O C K 2017-07-01.20507 1.000E-05 16:11:14.470 1.500E-01 0.500 F 0.117 -0.334 -04° 54' 51.80" 1.000E-01 0.500 F 0.132 0.228 o 691 0.81 Yes No
2017MR8 O C 2017-07-01.24182 1.000E-05 16:19:21.720 1.500E-01 0.500 F 0.239 -0.158 +05° 25' 45.50" 1.000E-01 0.500 F 0.155 0.206 20.4 V 0.70 -0.10 o 691 0.54 Yes Yes
2017MV2 O C 2017-07-01.24977 1.000E-05 16:47:01.290 1.500E-01 0.500 F 0.211 0.846 +03° 39' 07.70" 1.000E-01 0.500 F 0.240 -1.604 20.1 V 0.70 -0.74 o 691 3.62 No Yes
2017MR8 O C 2017-07-01.25404 1.000E-05 16:19:19.050 1.500E-01 0.500 F 0.239 -0.594 +05° 25' 37.40" 1.000E-01 0.500 F 0.155 0.140 20.5 V 0.70 0.00 o 691 1.27 Yes Yes
2017MV2 O C 2017-07-01.26179 1.000E-05 16:47:00.250 1.500E-01 0.500 F 0.211 -0.116 +03° 39' 14.80" 1.000E-01 0.500 F 0.240 -0.418 20.6 V 0.70 -0.24 o 691 0.87 Yes Yes
2017MR8 O C 2017-07-01.26606 1.000E-05 16:19:16.430 1.500E-01 0.500 F 0.239 -1.064 +05° 25' 28.70" 1.000E-01 0.500 F 0.155 -0.565 20.5 V 0.70 0.00 o 691 2.53 Yes Yes
2017MV2 O C 2017-07-01.27379 1.000E-05 16:46:59.200 1.500E-01 0.500 F 0.211 -1.272 +03° 39' 22.20" 1.000E-01 0.500 F 0.240 1.090 20.2 V 0.70 -0.64 o 691 3.34 No Yes
2010VB1 O C K 2017-07-01.28192 1.000E-05 16:55:26.140 1.500E-01 0.500 F -0.136 0.208 -17° 15' 11.10" 1.000E-01 0.500 F 0.158 0.082 o 691 0.45 Yes No
1998HD14 O C K 2017-07-01.28596 1.000E-05 16:50:19.060 1.500E-01 0.500 F 0.087 0.019 +11° 22' 48.90" 1.000E-01 0.500 F 0.212 0.021 19.0 R 0.70 -0.91 o 691 0.06 Yes Yes
2010VB1 O C K 2017-07-01.29390 1.000E-05 16:55:28.280 1.500E-01 0.500 F -0.136 0.317 -17° 15' 51.20" 1.000E-01 0.500 F 0.158 0.223 o 691 0.78 Yes No
1998HD14 O C K 2017-07-01.29791 1.000E-05 16:50:17.010 1.500E-01 0.500 F 0.087 -0.132 +11° 22' 41.30" 1.000E-01 0.500 F 0.212 0.114 19.1 R 0.70 -0.81 o 691 0.35 Yes Yes
2010VB1 O C K 2017-07-01.30585 1.000E-05 16:55:30.390 1.500E-01 0.500 F -0.136 -0.076 -17° 16' 31.50" 1.000E-01 0.500 F 0.158 -0.146 o 691 0.33 Yes No
1998HD14 O C K 2017-07-01.30985 1.000E-05 16:50:14.900 1.500E-01 0.500 F 0.087 -1.254 +11° 22' 34.30" 1.000E-01 0.500 F 0.212 0.834 o 691 3.02 Yes No
2017MW2 O C K 2017-07-01.31583 1.000E-05 20:13:45.820 1.500E-01 0.612 F -0.112 -0.044 -14° 49' 29.10" 1.000E-01 0.612 F 0.227 0.424 o 691 0.71 Yes No
2017MW4 O C H 2017-07-01.31934 1.000E-05 20:35:14.010 1.500E-01 0.500 F -0.048 -0.071 -19° 54' 58.10" 1.000E-01 0.500 F 0.083 0.001 20.6 R 0.70 1.23 o 691 0.14 Yes Yes
2017MC4 O C H 2017-07-01.32059 1.000E-05 19:41:48.940 1.500E-01 0.500 F 0.009 -0.076 -09° 17' 35.70" 1.000E-01 0.500 F 0.240 0.352 o 691 0.72 Yes No
2017MW2 O C 2017-07-01.32191 1.000E-05 20:13:45.840 1.500E-01 0.612 F -0.112 -0.039 -14° 50' 07.90" 1.000E-01 0.612 F 0.227 0.351 19.5 V 0.70 0.08 o 691 0.59 Yes Yes
2017MX2 O C K 2017-07-01.32191 1.000E-05 20:11:16.090 1.500E-01 0.500 F -0.150 -0.330 -14° 11' 54.90" 1.000E-01 0.500 F 0.263 0.506 o 691 1.25 Yes No
2017MW2 O C K 2017-07-01.32598 1.000E-05 20:13:45.820 1.500E-01 0.612 F -0.112 -0.513 -14° 50' 33.40" 1.000E-01 0.612 F 0.227 0.774 o 691 1.54 Yes No
2017MW4 O C H 2017-07-01.32950 1.000E-05 20:35:11.440 1.500E-01 0.500 F -0.048 -0.657 -19° 54' 31.60" 1.000E-01 0.500 F 0.083 -0.445 o 691 1.60 Yes No
2017MC4 O C H 2017-07-01.33072 1.000E-05 19:41:46.440 1.500E-01 0.500 F 0.009 0.046 -09° 17' 28.00" 1.000E-01 0.500 F 0.240 0.024 17.8 R 0.70 -0.40 o 691 0.10 Yes Yes
2017MW2 O C 2017-07-01.33204 1.000E-05 20:13:45.820 1.500E-01 0.612 F -0.112 -0.776 -14° 51' 12.60" 1.000E-01 0.612 F 0.227 0.170 20.9 V 0.70 1.48 o 691 1.31 Yes Yes
2017MW2 O C K 2017-07-01.33611 1.000E-05 20:13:45.890 1.500E-01 0.612 F -0.112 0.069 -14° 51' 39.00" 1.000E-01 0.612 F 0.227 -0.309 o 691 0.53 Yes No
2017MW4 O C H 2017-07-01.33964 1.000E-05 20:35:08.990 1.500E-01 0.500 F -0.048 0.413 -19° 54' 03.80" 1.000E-01 0.500 F 0.083 0.433 20.5 R 0.70 1.13 o 691 1.20 Yes Yes
2017MC4 O C H 2017-07-01.34086 1.000E-05 19:41:43.900 1.500E-01 0.500 F 0.009 -0.270 -09° 17' 19.70" 1.000E-01 0.500 F 0.240 0.233 o 691 0.72 Yes No
2017MW2 O C 2017-07-01.34218 1.000E-05 20:13:45.880 1.500E-01 0.612 F -0.112 -0.321 -14° 52' 17.20" 1.000E-01 0.612 F 0.227 0.148 19.8 V 0.70 0.38 o 691 0.58 Yes Yes
2017MX2 O C K 2017-07-01.34218 1.000E-05 20:11:17.020 1.500E-01 0.500 F -0.150 0.111 -14° 11' 01.80" 1.000E-01 0.500 F 0.263 0.148 20.1 R 0.70 -0.67 o 691 0.38 Yes Yes
2017MB1 O C 2017-07-01.34964 1.000E-05 20:45:07.090 1.500E-01 0.500 F -0.059 -0.245 -05° 02' 39.50" 1.000E-01 0.500 F 0.327 -0.159 18.0 V 0.70 0.03 o 691 0.59 Yes Yes
2015FO124 O C H 2017-07-01.35226 1.000E-05 20:59:34.100 1.500E-01 0.500 F 0.044 -0.133 -05° 59' 15.20" 1.000E-01 0.500 F 0.286 -0.043 21.2 R 0.70 0.65 o 691 0.28 Yes Yes
2017ME1 O C K 2017-07-01.35466 1.000E-05 21:40:50.520 1.500E-01 0.500 F -0.070 0.171 -14° 36' 38.50" 1.000E-01 0.500 F 0.150 0.081 o 691 0.39 Yes No
2017MB1 O C 2017-07-01.35947 1.000E-05 20:45:08.330 1.500E-01 0.500 F -0.059 -0.051 -05° 02' 29.40" 1.000E-01 0.500 F 0.327 -0.062 18.0 V 0.70 0.03 o 691 0.16 Yes Yes
2015FO124 O C H 2017-07-01.36208 1.000E-05 20:59:34.460 1.500E-01 0.500 F 0.044 0.185 -05° 59' 14.70" 1.000E-01 0.500 F 0.286 0.665 20.6 R 0.70 0.05 o 691 1.38 Yes Yes
2017ME1 O C K 2017-07-01.36447 1.000E-05 21:40:52.580 1.500E-01 0.500 F -0.070 0.372 -14° 37' 16.70" 1.000E-01 0.500 F 0.150 0.956 o 691 2.08 Yes No
2017MB1 O C 2017-07-01.36927 1.000E-05 20:45:09.550 1.500E-01 0.500 F -0.059 -0.090 -05° 02' 19.40" 1.000E-01 0.500 F 0.327 -0.049 18.0 V 0.70 0.03 o 691 0.21 Yes Yes
2015FO124 O C H 2017-07-01.37188 1.000E-05 20:59:34.790 1.500E-01 0.500 F 0.044 0.091 -05° 59' 15.50" 1.000E-01 0.500 F 0.286 0.067 21.0 R 0.70 0.45 o 691 0.23 Yes Yes
2017ME1 O C K 2017-07-01.37427 1.000E-05 21:40:54.610 1.500E-01 0.500 F -0.070 0.353 -14° 37' 56.90" 1.000E-01 0.500 F 0.150 -0.322 o 691 0.97 Yes No
2017CS O C H 2017-07-01.38238 1.000E-05 20:30:09.950 1.500E-01 0.500 F 0.029 -0.302 +15° 17' 32.30" 1.000E-01 0.500 F 0.291 0.134 17.3 R 0.70 -0.18 o 691 0.66 Yes Yes
2017HV4 O C 2017-07-01.38479 1.000E-05 21:41:21.390 1.500E-01 0.500 F -0.070 -0.415 -14° 05' 05.10" 1.000E-01 0.500 F 0.150 0.342 19.9 V 0.70 -0.23 o 691 1.08 Yes Yes
2017CS O C H 2017-07-01.39056 1.000E-05 20:30:09.830 1.500E-01 0.500 F 0.029 -0.052 +15° 17' 23.20" 1.000E-01 0.500 F 0.291 0.113 17.4 R 0.70 -0.08 o 691 0.25 Yes Yes
2017HV4 O C 2017-07-01.39309 1.000E-05 21:41:22.720 1.500E-01 0.500 F -0.070 -0.335 -14° 04' 45.60" 1.000E-01 0.500 F 0.150 0.193 20.0 V 0.70 -0.13 o 691 0.78 Yes Yes
2017CS O C H 2017-07-01.39896 1.000E-05 20:30:09.690 1.500E-01 0.500 F 0.029 -0.038 +15° 17' 14.00" 1.000E-01 0.500 F 0.291 0.266 17.5 R 0.70 0.02 o 691 0.54 Yes Yes
2017HV4 O C 2017-07-01.40167 1.000E-05 21:41:24.110 1.500E-01 0.500 F -0.070 0.067 -14° 04' 25.40" 1.000E-01 0.500 F 0.150 0.018 20.1 V 0.70 -0.04 o 691 0.14 Yes Yes
2017ME3 O C K 2017-07-01.41764 1.000E-05 21:59:18.750 1.500E-01 0.500 F -0.100 -0.121 +00° 36' 26.50" 1.000E-01 0.500 F 0.254 0.182 o 691 0.50 Yes No
2017ME3 O C K 2017-07-01.43219 1.000E-05 21:59:20.550 1.500E-01 0.500 F -0.100 0.159 +00° 35' 39.00" 1.000E-01 0.500 F 0.254 0.191 o 691 0.55 Yes No
2017ME3 O C K 2017-07-01.44676 1.000E-05 21:59:22.320 1.500E-01 0.500 F -0.100 0.083 +00° 34' 51.50" 1.000E-01 0.500 F 0.254 0.229 o 691 0.54 Yes No
2014NE64 O C K 2017-07-01.45466 1.000E-05 00:51:44.970 1.500E-01 0.500 F -0.262 -0.311 -12° 52' 27.20" 1.000E-01 0.500 F 0.087 0.148 o 691 0.70 Yes No
2014NE64 O C K 2017-07-01.45866 1.000E-05 00:51:44.900 1.500E-01 0.500 F -0.262 -0.004 -12° 52' 18.80" 1.000E-01 0.500 F 0.087 -0.222 20.6 R 0.70 -0.06 o 691 0.45 Yes Yes
2014NE64 O C K 2017-07-01.46267 1.000E-05 00:51:44.800 1.500E-01 0.500 F -0.262 -0.127 -12° 52' 09.80" 1.000E-01 0.500 F 0.087 -0.015 20.5 R 0.70 -0.16 o 691 0.26 Yes Yes
2017GM7 O C K 2017-07-02.16787 1.000E-05 12:03:07.540 1.500E-01 0.500 F 0.239 0.529 +20° 33' 23.20" 1.000E-01 0.500 F 0.294 -0.206 o 691 1.15 Yes No
2017GM7 O C K 2017-07-02.17477 1.000E-05 12:03:08.510 1.500E-01 0.500 F 0.239 0.639 +20° 32' 48.00" 1.000E-01 0.500 F 0.294 -0.187 o 691 1.35 Yes No
2017GM7 O C K 2017-07-02.18166 1.000E-05 12:03:09.440 1.500E-01 0.500 F 0.239 0.185 +20° 32' 12.90" 1.000E-01 0.500 F 0.294 -0.107 o 691 0.44 Yes No
2017MC3 O C H 2017-07-02.18908 1.000E-05 13:53:37.370 1.500E-01 0.500 F 0.194 0.247 +24° 27' 12.80" 1.000E-01 0.500 F 0.119 0.097 17.9 R 0.70 0.09 o 691 0.57 Yes Yes
2017MC3 O C H 2017-07-02.19009 1.000E-05 13:53:31.560 1.500E-01 0.500 F 0.194 0.327 +24° 27' 46.10" 1.000E-01 0.500 F 0.119 -0.035 17.6 R 0.70 -0.22 o 691 0.70 Yes Yes
2017MC3 O C H 2017-07-02.19110 1.000E-05 13:53:25.750 1.500E-01 0.500 F 0.194 0.432 +24° 28' 19.50" 1.000E-01 0.500 F 0.119 -0.056 o 691 0.93 Yes No
2017MR8 O C K 2017-07-02.19551 1.000E-05 16:16:42.160 1.500E-01 0.500 F 0.239 0.773 +05° 14' 23.20" 1.000E-01 0.500 F 0.155 0.170 18.9 R 0.70 -1.07 o 691 1.71 Yes Yes
2010VB1 O C H 2017-07-02.20927 1.000E-05 16:58:42.800 1.500E-01 0.500 F -0.168 0.053 -18° 05' 09.80" 1.000E-01 0.500 F 0.196 0.150 18.3 R 0.70 -0.49 o 691 0.32 Yes Yes
2017MR8 O C K 2017-07-02.21088 1.000E-05 16:16:38.450 1.500E-01 0.500 F 0.239 0.602 +05° 14' 10.50" 1.000E-01 0.500 F 0.155 -0.377 o 691 1.48 Yes No
2010VB1 O C H 2017-07-02.22477 1.000E-05 16:58:45.300 1.500E-01 0.500 F -0.168 0.129 -18° 05' 57.60" 1.000E-01 0.500 F 0.196 0.093 18.1 R 0.70 -0.69 o 691 0.32 Yes Yes
2017MR8 O C K 2017-07-02.22646 1.000E-05 16:16:34.690 1.500E-01 0.500 F 0.187 0.596 +05° 13' 58.60" 1.000E-01 0.500 F 0.184 0.181 o 691 1.30 Yes No
2010VB1 O C H 2017-07-02.24045 1.000E-05 16:58:47.810 1.500E-01 0.500 F -0.168 0.058 -18° 06' 45.60" 1.000E-01 0.500 F 0.196 0.035 18.4 R 0.70 -0.39 o 691 0.14 Yes Yes
1998HD14 O C K 2017-07-02.24977 1.000E-05 16:47:46.550 1.500E-01 0.500 F 0.098 0.042 +11° 12' 17.10" 1.000E-01 0.500 F 0.174 -0.247 19.1 R 0.70 -0.84 o 691 0.50 Yes Yes
2017NH O C H 2017-07-02.25462 1.000E-05 17:35:38.650 1.500E-01 0.500 F -0.043 0.070 -05° 14' 02.00" 1.000E-01 0.500 F 0.236 -0.013 16.4 R 0.70 -0.05 o 691 0.14 Yes Yes
2017MV2 O C K 2017-07-02.25650 1.000E-05 16:45:47.750 1.500E-01 0.500 F 0.184 -0.050 +03° 47' 11.30" 1.000E-01 0.500 F 0.208 -0.090 o 691 0.21 Yes No
1998HD14 O C K 2017-07-02.26231 1.000E-05 16:47:44.440 1.500E-01 0.500 F 0.098 -0.320 +11° 12' 09.20" 1.000E-01 0.500 F 0.174 0.401 18.9 R 0.70 -1.04 o 691 1.03 Yes Yes
2017NH O C H 2017-07-02.26732 1.000E-05 17:35:37.370 1.500E-01 0.500 F -0.043 -0.009 -05° 11' 55.60" 1.000E-01 0.500 F 0.236 -0.068 16.5 R 0.70 0.05 o 691 0.14 Yes Yes
2017MV2 O C K 2017-07-02.26919 1.000E-05 16:45:46.750 1.500E-01 0.500 F 0.184 0.196 +03° 47' 17.30" 1.000E-01 0.500 F 0.208 0.033 20.6 R 0.70 0.17 o 691 0.40 Yes Yes
1998HD14 O C K 2017-07-02.27500 1.000E-05 16:47:42.340 1.500E-01 0.500 F 0.098 -0.210 +11° 12' 00.20" 1.000E-01 0.500 F 0.174 0.087 19.1 R 0.70 -0.84 o 691 0.45 Yes Yes
2017NH O C H 2017-07-02.27994 1.000E-05 17:35:36.110 1.500E-01 0.500 F -0.003 0.056 -05° 09' 49.50" 1.000E-01 0.500 F 0.239 0.137 17.3 R 0.70 0.85 o 691 0.30 Yes Yes
2017MD3 O C 2017-07-02.28417 1.000E-05 20:08:07.070 1.500E-01 0.500 F -0.065 -0.277 -13° 23' 23.50" 1.000E-01 0.500 F 0.224 0.215 19.9 V 0.70 0.26 o 691 0.72 Yes Yes
2017MX2 O C K 2017-07-02.28417 1.000E-05 20:12:10.010 1.500E-01 0.500 F -0.134 -0.182 -13° 29' 27.00" 1.000E-01 0.500 F 0.192 0.077 o 691 0.40 Yes No
2017MW2 O C K 2017-07-02.28832 1.000E-05 20:13:58.070 1.500E-01 0.500 F -0.237 0.149 -16° 33' 53.50" 1.000E-01 0.500 F 0.154 -0.535 o 691 1.15 Yes No
2017MX2 O C K 2017-07-02.29545 1.000E-05 20:12:10.470 1.500E-01 0.500 F -0.134 -0.577 -13° 28' 56.80" 1.000E-01 0.500 F 0.192 0.682 20.1 R 0.70 -0.65 o 691 1.85 Yes Yes
2017MD3 O C 2017-07-02.29545 1.000E-05 20:08:07.540 1.500E-01 0.500 F -0.065 0.085 -13° 23' 38.20" 1.000E-01 0.500 F 0.224 -0.472 20.1 V 0.70 0.46 o 691 0.99 Yes Yes
2017MW2 O C K 2017-07-02.29960 1.000E-05 20:13:58.110 1.500E-01 0.500 F -0.237 0.431 -16° 35' 06.70" 1.000E-01 0.500 F 0.154 0.119 18.1 R 0.70 -0.86 o 691 0.91 Yes Yes
2017MX2 O C K 2017-07-02.30672 1.000E-05 20:12:11.000 1.500E-01 0.500 F -0.134 0.131 -13° 28' 28.30" 1.000E-01 0.500 F 0.192 -0.418 o 691 0.91 Yes No
2017MD3 O C 2017-07-02.30672 1.000E-05 20:08:07.970 1.500E-01 0.500 F -0.065 -0.067 -13° 23' 51.70" 1.000E-01 0.500 F 0.224 0.002 19.8 V 0.70 0.16 o 691 0.14 Yes Yes
2017MW2 O C K 2017-07-02.31086 1.000E-05 20:13:58.110 1.500E-01 0.500 F -0.237 0.199 -16° 36' 20.60" 1.000E-01 0.500 F 0.154 -0.068 18.9 R 0.70 -0.06 o 691 0.43 Yes Yes
2017MB1 O C 2017-07-02.31808 1.000E-05 20:47:22.700 1.500E-01 0.500 F -0.059 -0.138 -04° 45' 37.00" 1.000E-01 0.500 F 0.327 -0.112 18.1 V 0.70 0.25 o 691 0.36 Yes Yes
2017HV4 O C 2017-07-02.32185 1.000E-05 21:44:28.280 1.500E-01 0.500 F -0.139 -0.269 -13° 28' 10.90" 1.000E-01 0.500 F 0.134 -0.060 20.2 V 0.70 0.02 o 691 0.56 Yes Yes
2017MB1 O C 2017-07-02.32328 1.000E-05 20:47:23.500 1.500E-01 0.500 F -0.059 1.297 -04° 45' 30.40" 1.000E-01 0.500 F 0.327 0.838 17.4 V 0.70 -0.45 o 691 3.10 Yes Yes
2017HV4 O C 2017-07-02.32705 1.000E-05 21:44:29.100 1.500E-01 0.500 F -0.139 -0.084 -13° 27' 59.60" 1.000E-01 0.500 F 0.134 -0.202 20.3 V 0.70 0.12 o 691 0.44 Yes Yes
2017MB1 O C 2017-07-02.32849 1.000E-05 20:47:24.090 1.500E-01 0.500 F -0.059 -0.419 -04° 45' 26.50" 1.000E-01 0.500 F 0.327 -0.926 17.8 V 0.70 -0.05 o 691 2.04 Yes Yes
2017HV4 O C 2017-07-02.33224 1.000E-05 21:44:30.000 1.500E-01 0.500 F -0.139 1.367 -13° 27' 47.50" 1.000E-01 0.500 F 0.134 0.460 o 691 2.91 Yes No
2015FO124 O C H 2017-07-02.36510 1.000E-05 21:00:16.590 1.500E-01 0.500 F 0.029 0.037 -05° 59' 46.70" 1.000E-01 0.500 F 0.270 0.327 20.2 R 0.70 -0.29 o 691 0.66 Yes Yes
2015FO124 O C H 2017-07-02.37883 1.000E-05 21:00:17.030 1.500E-01 0.500 F 0.029 -0.103 -05° 59' 47.60" 1.000E-01 0.500 F 0.270 0.100 20.7 R 0.70 0.21 o 691 0.29 Yes Yes
2015FO124 O C H 2017-07-02.39269 1.000E-05 21:00:17.470 1.500E-01 0.500 F 0.029 -0.274 -05° 59' 49.00" 1.000E-01 0.500 F 0.270 -0.631 o 691 1.38 Yes No
2017MV4 O C H 2017-07-02.40736 1.000E-05 21:11:29.790 1.500E-01 0.500 F 0.021 0.805 +00° 52' 50.50" 1.000E-01 0.500 F 0.197 -0.649 o 691 2.10 Yes No
2010VK188 O C H 2017-07-02.41133 1.000E-05 21:28:56.770 1.500E-01 0.500 F 0.007 -0.042 -23° 35' 52.30" 1.000E-01 0.500 F 0.549 0.234 21.4 R 0.70 0.47 o 691 0.48 Yes Yes
2017ME1 O C K 2017-07-02.41375 1.000E-05 21:44:53.970 1.500E-01 0.500 F -0.096 1.086 -15° 42' 44.90" 1.000E-01 0.500 F 0.279 -0.424 19.7 R 0.70 -0.83 o 691 2.37 Yes Yes
2017MV4 O C H 2017-07-02.41863 1.000E-05 21:11:29.820 1.500E-01 0.500 F 0.021 -0.774 +00° 52' 47.50" 1.000E-01 0.500 F 0.197 0.750 o 691 2.18 Yes No
2010VK188 O C H 2017-07-02.42271 1.000E-05 21:28:56.640 1.500E-01 0.500 F 0.007 -0.134 -23° 35' 56.80" 1.000E-01 0.500 F 0.549 -0.389 21.5 R 0.70 0.57 o 691 0.83 Yes Yes
2017ME1 O C K 2017-07-02.42513 1.000E-05 21:44:55.910 1.500E-01 0.500 F -0.096 -0.682 -15° 43' 26.20" 1.000E-01 0.500 F 0.279 -0.875 20.3 R 0.70 -0.24 o 691 2.25 Yes Yes
2017MV4 O C H 2017-07-02.43019 1.000E-05 21:11:30.090 1.500E-01 0.500 F 0.021 1.199 +00° 52' 41.60" 1.000E-01 0.500 F 0.197 -0.632 o 691 2.75 Yes No
2010VK188 O C H 2017-07-02.43431 1.000E-05 21:28:56.540 1.500E-01 0.500 F 0.007 0.224 -23° 36' 01.10" 1.000E-01 0.500 F 0.549 -0.750 21.2 R 0.70 0.27 o 691 1.57 Yes Yes
2014NE64 O C K 2017-07-02.44170 1.000E-05 00:51:24.110 1.500E-01 0.500 F -0.262 -0.189 -12° 16' 06.80" 1.000E-01 0.500 F 0.088 0.781 19.1 R 0.70 -1.54 o 691 1.62 Yes Yes
2017LU O C 2017-07-02.44752 1.000E-05 01:11:49.340 1.500E-01 0.500 F -0.316 -0.827 +06° 28' 41.10" 1.000E-01 0.500 F 0.336 -0.202 19.6 V 0.70 0.03 o 691 1.71 Yes Yes
2014NE64 O C K 2017-07-02.44940 1.000E-05 00:51:23.910 1.500E-01 0.500 F -0.262 -0.259 -12° 15' 51.30" 1.000E-01 0.500 F 0.088 -0.719 19.6 R 0.70 -1.04 o 691 1.54 Yes Yes
2017LU O C 2017-07-02.45518 1.000E-05 01:11:50.860 1.500E-01 0.500 F -0.316 -0.336 +06° 29' 04.30" 1.000E-01 0.500 F 0.336 -0.231 19.8 V 0.70 0.23 o 691 0.82 Yes Yes
2014NE64 O C K 2017-07-02.45709 1.000E-05 00:51:23.720 1.500E-01 0.500 F -0.262 -0.170 -12° 15' 33.00" 1.000E-01 0.500 F 0.088 0.598 20.0 R 0.70 -0.64 o 691 1.26 Yes Yes
2017LU O C 2017-07-02.46288 1.000E-05 01:11:52.360 1.500E-01 0.500 F -0.316 -0.229 +06° 29' 27.80" 1.000E-01 0.500 F 0.336 -0.076 19.9 V 0.70 0.33 o 691 0.48 Yes Yes
2017MV2 O C K 2017-07-03.28102 1.000E-05 16:44:34.000 1.500E-01 0.500 F 0.184 -0.252 +03° 54' 52.10" 1.000E-01 0.500 F 0.208 -0.401 20.3 R 0.70 -0.12 o 691 0.95 Yes Yes
2017MV2 O C K 2017-07-03.29335 1.000E-05 16:44:33.060 1.500E-01 0.500 F 0.184 0.174 +03° 54' 57.20" 1.000E-01 0.500 F 0.208 -0.632 o 691 1.31 Yes No
2017MV2 O C K 2017-07-03.30556 1.000E-05 16:44:32.080 1.500E-01 0.500 F 0.184 -0.188 +03° 55' 02.70" 1.000E-01 0.500 F 0.208 -0.400 o 691 0.89 Yes No
2017MW2 O C K 2017-07-03.31806 1.000E-05 20:14:08.490 1.500E-01 0.500 F -0.020 0.340 -18° 27' 19.00" 1.000E-01 0.500 F 0.008 -0.065 18.3 R 0.70 -0.59 o 691 0.71 Yes Yes
2017MW4 O C K 2017-07-03.32185 1.000E-05 20:27:05.250 1.500E-01 0.500 F 0.051 -0.966 -18° 24' 36.50" 1.000E-01 0.500 F -0.040 0.270 o 691 2.03 Yes No
2017MW2 O C K 2017-07-03.33492 1.000E-05 20:14:08.440 1.500E-01 0.500 F -0.020 -0.043 -18° 29' 12.10" 1.000E-01 0.500 F 0.008 -0.123 o 691 0.27 Yes No
2017MW4 O C K 2017-07-03.33866 1.000E-05 20:27:01.030 1.500E-01 0.500 F 0.051 -0.115 -18° 23' 51.60" 1.000E-01 0.500 F -0.040 -0.756 18.0 R 0.70 -1.27 o 691 1.54 Yes Yes
2017MW4 O C K 2017-07-03.35559 1.000E-05 20:26:56.710 1.500E-01 0.500 F 0.051 -0.187 -18° 23' 04.40" 1.000E-01 0.500 F -0.040 0.114 18.5 R 0.70 -0.77 o 691 0.44 Yes Yes
2000GP82 O C 2017-07-03.37166 1.000E-05 20:41:40.860 1.500E-01 0.500 F -0.115 -0.374 -17° 37' 49.10" 1.000E-01 0.500 F 0.192 0.044 19.9 V 0.70 0.51 o 691 0.76 Yes Yes
2017MB1 O C H 2017-07-03.37448 1.000E-05 20:50:01.900 1.500E-01 0.500 F -0.049 0.079 -04° 25' 36.70" 1.000E-01 0.500 F 0.316 0.016 17.0 R 0.70 -0.31 o 691 0.16 Yes Yes
2000GP82 O C 2017-07-03.38073 1.000E-05 20:41:40.240 1.500E-01 0.500 F -0.115 0.032 -17° 37' 56.70" 1.000E-01 0.500 F 0.192 -0.103 20.0 V 0.70 0.61 o 691 0.22 Yes Yes
2017MB1 O C H 2017-07-03.38353 1.000E-05 20:50:03.230 1.500E-01 0.500 F -0.049 0.126 -04° 25' 25.90" 1.000E-01 0.500 F 0.316 0.118 17.0 R 0.70 -0.31 o 691 0.35 Yes Yes
2000GP82 O C 2017-07-03.38977 1.000E-05 20:41:39.580 1.500E-01 0.500 F -0.115 -0.160 -17° 38' 04.10" 1.000E-01 0.500 F 0.192 -0.080 20.0 V 0.70 0.61 o 691 0.36 Yes Yes
2017MB1 O C H 2017-07-03.39258 1.000E-05 20:50:04.550 1.500E-01 0.500 F -0.049 0.017 -04° 25' 15.20" 1.000E-01 0.500 F 0.316 0.105 17.0 R 0.70 -0.31 o 691 0.21 Yes Yes
2015FO124 O C H 2017-07-03.39883 1.000E-05 21:00:58.350 1.500E-01 0.500 F 0.029 -0.193 -06° 00' 50.60" 1.000E-01 0.500 F 0.270 0.087 19.9 R 0.70 -0.52 o 691 0.43 Yes Yes
2017HV4 O C 2017-07-03.40135 1.000E-05 21:47:41.680 1.500E-01 0.500 F -0.154 -0.138 -12° 48' 03.40" 1.000E-01 0.500 F 0.147 0.115 20.6 V 0.70 0.36 o 691 0.36 Yes Yes
2015FO124 O C H 2017-07-03.40865 1.000E-05 21:00:58.660 1.500E-01 0.500 F 0.029 -0.105 -06° 00' 51.30" 1.000E-01 0.500 F 0.270 0.146 20.1 R 0.70 -0.32 o 691 0.36 Yes Yes
2017HV4 O C 2017-07-03.41118 1.000E-05 21:47:42.980 1.500E-01 0.500 F -0.154 0.026 -12° 47' 42.40" 1.000E-01 0.500 F 0.147 0.044 20.2 V 0.70 -0.04 o 691 0.10 Yes Yes
2015FO124 O C H 2017-07-03.41864 1.000E-05 21:00:58.980 1.500E-01 0.500 F 0.029 0.053 -06° 00' 51.90" 1.000E-01 0.500 F 0.270 0.312 20.1 R 0.70 -0.32 o 691 0.63 Yes Yes
2017HV4 O C 2017-07-03.42124 1.000E-05 21:47:44.280 1.500E-01 0.500 F -0.154 -0.170 -12° 47' 20.50" 1.000E-01 0.500 F 0.147 0.303 20.2 V 0.70 -0.04 o 691 0.70 Yes Yes
2002GP186 O C K 2017-07-03.42736 1.000E-05 23:31:26.840 1.500E-01 0.500 F -0.186 0.583 -26° 11' 32.80" 1.000E-01 0.500 F 0.430 -0.054 19.9 R 0.70 -0.94 o 691 1.16 Yes Yes
2017LU O C 2017-07-03.43278 1.000E-05 01:15:03.970 1.500E-01 0.500 F -0.295 -0.745 +07° 17' 55.90" 1.000E-01 0.500 F 0.360 0.314 19.9 V 0.70 0.32 o 691 1.63 Yes Yes
2017FR2 O C K 2017-07-03.43397 1.000E-05 00:08:50.350 1.500E-01 0.500 F -0.182 -0.121 +15° 12' 36.90" 1.000E-01 0.500 F 0.387 0.076 o 691 0.29 Yes No
2017LU O C 2017-07-03.44642 1.000E-05 01:15:06.640 1.500E-01 0.500 F -0.295 0.073 +07° 18' 36.50" 1.000E-01 0.500 F 0.360 0.230 19.9 V 0.70 0.32 o 691 0.49 Yes Yes
2017FR2 O C K 2017-07-03.44761 1.000E-05 00:08:50.070 1.500E-01 0.500 F -0.182 0.044 +15° 11' 22.70" 1.000E-01 0.500 F 0.387 0.320 o 691 0.68 Yes No
2002GP186 O C K 2017-07-03.45468 1.000E-05 23:31:31.400 1.500E-01 0.500 F -0.186 0.783 -26° 11' 34.90" 1.000E-01 0.500 F 0.430 0.379 19.4 R 0.70 -1.44 o 691 1.73 Yes Yes
2017LU O C 2017-07-03.46016 1.000E-05 01:15:09.230 1.500E-01 0.500 F -0.295 -0.486 +07° 19' 17.70" 1.000E-01 0.500 F 0.360 0.467 19.9 V 0.70 0.32 o 691 1.36 Yes Yes
2017FR2 O C K 2017-07-03.46136 1.000E-05 00:08:49.760 1.500E-01 0.500 F -0.145 0.056 +15° 10' 07.60" 1.000E-01 0.500 F 0.449 0.291 o 691 0.63 Yes No
2017MT8 O C K 2017-07-04.34218 1.000E-05 21:05:15.430 1.500E-01 0.500 F 0.050 -0.157 +02° 49' 04.50" 1.000E-01 0.500 F 0.309 -0.138 o 691 0.42 Yes No
2017HV4 O C K 2017-07-04.35454 1.000E-05 21:50:23.800 1.500E-01 0.500 F -0.124 -0.363 -12° 14' 25.20" 1.000E-01 0.500 F 0.235 0.515 o 691 1.27 Yes No
2017MT8 O C K 2017-07-04.35873 1.000E-05 21:05:14.860 1.500E-01 0.500 F 0.050 -0.051 +02° 47' 59.80" 1.000E-01 0.500 F 0.309 0.135 o 691 0.29 Yes No
2017MT8 O C K 2017-07-04.37530 1.000E-05 21:05:14.320 1.500E-01 0.500 F 0.050 0.724 +02° 46' 54.00" 1.000E-01 0.500 F 0.309 -0.523 o 691 1.82 Yes No
2017HV4 O C K 2017-07-04.38769 1.000E-05 21:50:27.860 1.500E-01 0.500 F -0.124 -0.173 -12° 13' 18.80" 1.000E-01 0.500 F 0.235 0.441 o 691 0.96 Yes No
2014NF63 O C K 2017-07-04.39554 1.000E-05 23:19:02.260 1.500E-01 0.500 F -0.178 -0.203 -03° 56' 52.00" 1.000E-01 0.500 F 0.239 0.609 o 691 1.29 Yes No
2017KT34 O C K 2017-07-04.40656 1.000E-05 23:04:34.150 1.500E-01 0.500 F -0.069 -0.026 +03° 36' 39.90" 1.000E-01 0.500 F 0.261 0.028 o 691 0.08 Yes No
2017KT34 O C K 2017-07-04.42687 1.000E-05 23:04:37.270 1.500E-01 0.500 F -0.069 0.619 +03° 38' 18.10" 1.000E-01 0.500 F 0.261 0.001 o 691 1.33 Yes No
2014NF63 O C K 2017-07-04.43608 1.000E-05 23:19:04.690 1.500E-01 0.500 F -0.178 -0.270 -03° 56' 22.30" 1.000E-01 0.500 F 0.239 0.086 o 691 0.57 Yes No
2017KT34 O C K 2017-07-04.44712 1.000E-05 23:04:40.260 1.500E-01 0.500 F -0.069 -0.218 +03° 39' 55.70" 1.000E-01 0.500 F 0.261 -0.225 o 691 0.69 Yes No
2017OA O C K 2017-07-26.15797 1.000E-05 15:25:15.670 1.500E-01 0.500 F 0.256 -0.499 -10° 02' 41.50" 1.000E-01 0.500 F 0.053 0.242 20.3 R 0.70 -0.44 o 691 1.11 Yes Yes
2006OH15 O C K 2017-07-26.16317 1.000E-05 15:06:11.310 1.500E-01 0.500 F 0.004 0.779 +21° 00' 40.30" 1.000E-01 0.500 F 0.335 -0.910 18.9 R 0.70 -1.29 o 691 2.41 Yes Yes
2017OA O C K 2017-07-26.16838 1.000E-05 15:25:14.930 1.500E-01 0.500 F 0.256 -1.381 -10° 02' 38.70" 1.000E-01 0.500 F 0.053 -0.562 20.3 R 0.70 -0.44 o 691 2.99 Yes Yes
2006OH15 O C K 2017-07-26.17350 1.000E-05 15:06:12.900 1.500E-01 0.500 F 0.004 0.617 +20° 59' 56.30" 1.000E-01 0.500 F 0.335 -1.228 19.0 R 0.70 -1.19 o 691 2.76 Yes Yes
2017OA O C K 2017-07-26.17870 1.000E-05 15:25:14.340 1.500E-01 0.500 F 0.256 -0.164 -10° 02' 34.40" 1.000E-01 0.500 F 0.053 0.156 20.7 R 0.70 -0.04 o 691 0.45 Yes Yes
2006OH15 O C K 2017-07-26.18376 1.000E-05 15:06:14.500 1.500E-01 0.500 F 0.004 0.726 +20° 59' 13.20" 1.000E-01 0.500 F 0.335 -0.930 19.3 R 0.70 -0.89 o 691 2.37 Yes Yes
2007XJ16 O C H 2017-08-18.13858 1.000E-05 15:45:47.840 1.500E-01 0.500 F 0.124 0.465 -18° 18' 45.60" 1.000E-01 0.500 F 0.134 0.496 18.9 R 0.70 0.66 o 691 1.38 Yes Yes
2017OP19 O C H 2017-08-18.14146 1.000E-05 16:52:37.870 1.500E-01 0.500 F 0.043 -0.153 +13° 32' 34.60" 1.000E-01 0.500 F 0.231 -0.456 o 691 0.97 Yes No
2007XJ16 O C H 2017-08-18.14427 1.000E-05 15:45:48.350 1.500E-01 0.500 F 0.124 0.361 -18° 18' 35.30" 1.000E-01 0.500 F 0.134 0.774 18.6 R 0.70 0.36 o 691 1.73 Yes Yes
2017OP19 O C H 2017-08-18.14712 1.000E-05 16:52:37.870 1.500E-01 0.500 F 0.043 0.305 +13° 32' 32.70" 1.000E-01 0.500 F 0.231 0.493 20.2 R 0.70 -0.87 o 691 1.16 Yes Yes
2007XJ16 O C H 2017-08-18.14995 1.000E-05 15:45:48.870 1.500E-01 0.500 F 0.124 0.390 -18° 18' 25.40" 1.000E-01 0.500 F 0.134 0.657 18.5 R 0.70 0.26 o 691 1.55 Yes Yes
2017OP19 O C H 2017-08-18.15282 1.000E-05 16:52:37.780 1.500E-01 0.500 F 0.043 -0.551 +13° 32' 29.70" 1.000E-01 0.500 F 0.231 0.366 20.5 R 0.70 -0.57 o 691 1.33 Yes Yes
2017QK O C K 2017-08-18.15857 1.000E-05 20:27:21.660 1.500E-01 0.500 F -0.206 1.682 -13° 39' 10.40" 1.000E-01 0.500 F 0.202 0.799 19.7 R 0.70 -0.52 o 691 3.67 No Yes
2017QK O C K 2017-08-18.17038 1.000E-05 20:27:23.920 1.500E-01 0.500 F -0.206 0.824 -13° 38' 46.50" 1.000E-01 0.500 F 0.202 0.869 19.9 R 0.70 -0.32 o 691 2.43 Yes Yes
2008AZ110 O C 2017-08-18.21802 1.000E-05 21:57:52.540 1.500E-01 0.500 F -0.070 -0.889 -09° 01' 19.80" 1.000E-01 0.500 F 0.207 -0.034 o 691 1.79 Yes No
2008AZ110 O C 2017-08-18.22636 1.000E-05 21:57:51.880 1.500E-01 0.500 F -0.070 -1.444 -09° 01' 21.40" 1.000E-01 0.500 F 0.207 0.544 o 691 3.10 Yes No
2008AZ110 O C 2017-08-18.23471 1.000E-05 21:57:51.320 1.500E-01 0.500 F -0.070 -0.495 -09° 01' 24.00" 1.000E-01 0.500 F 0.207 0.121 o 691 1.02 Yes No
2015QE9 O C H 2017-08-18.36082 1.000E-05 22:39:58.130 1.500E-01 0.500 F -0.132 0.529 -15° 20' 22.90" 1.000E-01 0.500 F 0.274 -0.680 o 691 1.72 Yes No
2015QE9 O C H 2017-08-18.36610 1.000E-05 22:39:57.710 1.500E-01 0.500 F -0.132 -0.260 -15° 20' 27.90" 1.000E-01 0.500 F 0.274 0.403 19.8 R 0.70 -0.40 o 691 0.96 Yes Yes
2015QE9 O C H 2017-08-18.37139 1.000E-05 22:39:57.390 1.500E-01 0.500 F -0.132 0.407 -15° 20' 34.80" 1.000E-01 0.500 F 0.274 -0.406 19.5 R 0.70 -0.70 o 691 1.15 Yes Yes
2017PA27 O C K 2017-08-18.38036 1.000E-05 00:18:32.100 1.500E-01 0.500 F -0.208 1.474 +24° 18' 12.20" 1.000E-01 0.500 F 0.280 0.705 19.2 R 0.70 -0.89 o 691 3.26 No Yes
2017PB27 O C K 2017-08-18.38500 1.000E-05 00:25:06.590 1.500E-01 0.500 F -0.156 0.160 +22° 26' 20.30" 1.000E-01 0.500 F 0.363 0.981 19.4 R 0.70 -1.01 o 691 2.00 Yes Yes
2017PA27 O C K 2017-08-18.39005 1.000E-05 00:18:34.020 1.500E-01 0.500 F -0.208 1.399 +24° 18' 18.10" 1.000E-01 0.500 F 0.280 0.754 18.7 R 0.70 -1.39 o 691 3.17 No Yes
2017PB27 O C K 2017-08-18.39471 1.000E-05 00:25:07.540 1.500E-01 0.500 F -0.156 0.347 +22° 26' 36.00" 1.000E-01 0.500 F 0.363 0.489 19.4 R 0.70 -1.01 o 691 1.20 Yes Yes
2017PA27 O C K 2017-08-18.39976 1.000E-05 00:18:35.940 1.500E-01 0.500 F -0.208 1.289 +24° 18' 23.50" 1.000E-01 0.500 F 0.280 0.341 19.1 R 0.70 -0.99 o 691 2.68 Yes Yes
2017OX18 O C K 2017-08-18.46201 1.000E-05 01:32:21.570 1.500E-01 0.500 F -0.216 1.005 -17° 16' 39.00" 1.000E-01 0.500 F 0.182 -0.504 o 691 2.54 Yes No
2017OX18 O C K 2017-08-18.46868 1.000E-05 01:32:23.250 1.500E-01 0.500 F -0.216 0.655 -17° 17' 01.60" 1.000E-01 0.500 F 0.182 -0.394 o 691 1.73 Yes No
2017OX18 O C K 2017-08-18.47535 1.000E-05 01:32:24.940 1.500E-01 0.500 F -0.216 0.454 -17° 17' 24.30" 1.000E-01 0.500 F 0.182 -0.406 o 691 1.38 Yes No
2017PL26 O C K 2017-08-20.23544 1.000E-05 18:30:04.110 1.500E-01 0.500 F 0.109 -2.880 +22° 12' 21.40" 1.000E-01 0.500 F 0.316 3.987 o 691 9.75 No No
2017PL26 O C K 2017-08-20.23856 1.000E-05 18:30:02.540 1.500E-01 0.500 F 0.109 -3.128 +22° 12' 58.00" 1.000E-01 0.500 F 0.316 4.054 o 691 10.15 No No
2017QG3 O C K 2017-08-20.28440 1.000E-05 21:54:35.490 1.500E-01 0.500 F -0.211 0.271 -11° 57' 15.10" 1.000E-01 0.500 F 0.223 0.998 19.5 R 0.70 0.11 o 691 2.08 Yes Yes
2017QG3 O C K 2017-08-20.29100 1.000E-05 21:54:36.050 1.500E-01 0.500 F -0.211 0.566 -11° 57' 01.50" 1.000E-01 0.500 F 0.223 1.064 o 691 2.43 Yes No
2017QC3 O C K 2017-08-20.29388 1.000E-05 23:02:13.530 1.500E-01 0.500 F -0.057 -1.584 -10° 40' 30.70" 1.000E-01 0.500 F 0.358 1.115 19.5 R 0.70 -0.64 o 691 3.84 No Yes
2017QC3 O C K 2017-08-20.30049 1.000E-05 23:02:11.710 1.500E-01 0.500 F -0.057 -1.240 -10° 40' 05.40" 1.000E-01 0.500 F 0.358 1.353 19.3 R 0.70 -0.84 o 691 3.64 No Yes
2017OJ19 O C K 2017-08-20.30838 1.000E-05 22:19:06.110 1.500E-01 0.500 F -0.208 0.405 -15° 59' 50.70" 1.000E-01 0.500 F 0.226 -0.465 20.1 R 0.70 -0.17 o 691 1.28 Yes Yes
2017OJ19 O C K 2017-08-20.32031 1.000E-05 22:19:07.560 1.500E-01 0.500 F -0.208 0.653 -15° 59' 35.40" 1.000E-01 0.500 F 0.226 0.309 20.9 R 0.70 0.63 o 691 1.50 Yes Yes

[1-200] [201-400] [401-600] [601-800] [801-1000] [1001-1200] [1201-1400] [1401-1600] [1601-1800] [1801-2000] [2001-2200] [2201-2400] [2401-2600] [2601-2800] [2801-3000] [3001-3200] [3201-3400] [3401-3600] [3601-3800] [3801-4000] [4001-4200] [4201-4400] [4401-4600] [4601-4800] [4801-5000] [5001-5200] [5201-5400] [5401-5600] [5601-5800] [5801-6000] [6001-6200] [6201-6400] [6401-6600] [6601-6800] [6801-7000] [7001-7200] [7201-7400] [7401-7600] [7601-7800] [7801-8000] [8001-8200] [8201-8400] [8401-8600] [8601-8800] [8801-9000] [9001-9200] [9201-9400] [9401-9600] [9601-9800] [9801-10000] [10001-10200] [10201-10400] [10401-10600] [10601-10800] [10801-11000] [11001-11200] [11201-11400] [11401-11600] [11601-11800] [11801-12000] [12001-12200] [12201-12400] [12401-12600] [12601-12800] [12801-13000] [13001-13200] [13201-13400] [13401-13600] [13601-13800] [13801-14000] [14001-14200] [14201-14400] [14401-14600] [14601-14800] [14801-15000] [15001-15200] [15201-15400] [15401-15600] [15601-15800] [15801-16000] [16001-16200] [16201-16400] [16401-16600] [16601-16800] [16801-17000] [17001-17200] [17201-17400] [17401-17600] [17601-17800] [17801-18000] [18001-18200] [18201-18400] [18401-18600] [18601-18800] [18801-19000] [19001-19200] [19201-19400] [19401-19600] [19601-19800] [19801-20000] [20001-20200] [20201-20400] [20401-20600] [20601-20800] [20801-21000] [21001-21200] [21201-21400] [21401-21600] [21601-21800] [21801-22000] [22001-22200] [22201-22400] [22401-22600] [22601-22800] [22801-23000] [23001-23200] [23201-23400] [23401-23600] [23601-23800] [23801-24000] [24001-24200] [24201-24400] [24401-24600] [24601-24800] [24801-25000] [25001-25200] [25201-25400] [25401-25600] [25601-25800] [25801-26000] [26001-26200] [26201-26400] [26401-26600] [26601-26800] [26801-27000] [27001-27200] [27201-27400] [27401-27600] [27601-27800] [27801-28000] [28001-28200] [28201-28400] [28401-28600] [28601-28800] [28801-29000] [29001-29200] [29201-29400] [29401-29600] [29601-29800] [29801-30000] [30001-30200] [30201-30400] [30401-30600] [30601-30800] [30801-31000] [31001-31200] [31201-31400] [31401-31600] [31601-31800] [31801-32000] [32001-32200] [32201-32400] [32401-32600] [32601-32800] [32801-33000] [33001-33200] [33201-33400] [33401-33600] [33601-33800] [33801-34000] [34001-34200] [34201-34400] [34401-34600] [34601-34800] [34801-35000] [35001-35200] [35201-35400] [35401-35600] [35601-35800] [35801-36000] [36001-36200] [36201-36400] [36401-36600] [36601-36800] [36801-37000] [37001-37200] [37201-37400] [37401-37600] [37601-37800] [37801-38000] [38001-38200] [38201-38400] [38401-38600] [38601-38800] [38801-39000] [39001-39200] [39201-39400] [39401-39600] [39601-39800] [39801-40000] [40001-40200] [40201-40400] [40401-40600] [40601-40800] [40801-41000] [41001-41200] [41201-41400] [41401-41600] [41601-41800] [41801-42000] [42001-42200] [42201-42400] [42401-42600] [42601-42800] [42801-43000] [43001-43200] [43201-43400] [43401-43600] [43601-43800] [43801-44000] [44001-44200] [44201-44400] [44401-44600] [44601-44800] [44801-45000] [45001-45200] [45201-45400] [45401-45600] [45601-45800] [45801-46000] [46001-46200] [46201-46400] [46401-46600] [46601-46800] [46801-47000] [47001-47200] [47201-47400] [47401-47600] [47601-47800] [47801-48000] [48001-48200] [48201-48400] [48401-48600] [48601-48800] [48801-49000] [49001-49200] [49201-49400] [49401-49600] [49601-49800] [49801-50000] [50001-50200] [50201-50388]